Time,TemperatureF,DewpointF,PressureIn,WindDirection,WindDirectionDegrees,WindSpeedMPH,WindSpeedGustMPH,Humidity,HourlyPrecipIn,Conditions,Clouds,dailyrainin,SoftwareType,DateUTC
2013-01-16 00:00:00,20.1,17.1,30.20,NW,317,0.0,1.0,88,0.00,,---,0.00,VWS V14.00,2013-01-16 05:00:00,
2013-01-16 00:29:00,19.7,16.7,30.19,NNW,327,0.0,0.0,88,0.00,,---,0.00,VWS V14.00,2013-01-16 05:29:00,
2013-01-16 00:59:00,19.4,15.9,30.19,NNW,327,0.0,0.0,86,0.00,,---,0.00,VWS V14.00,2013-01-16 05:59:00,
2013-01-16 01:29:00,18.8,15.6,30.18,NNW,327,0.0,0.0,87,0.00,,---,0.00,VWS V14.00,2013-01-16 06:29:00,
2013-01-16 01:59:00,18.4,14.9,30.17,NNW,327,0.0,0.0,86,0.00,,---,0.00,VWS V14.00,2013-01-16 06:59:00,
2013-01-16 02:29:00,17.4,14.5,30.18,NNW,327,0.0,0.0,88,0.00,,---,0.00,VWS V14.00,2013-01-16 07:29:00,
2013-01-16 02:59:00,16.2,12.5,30.16,NNE,32,0.0,1.0,85,0.00,,---,0.00,VWS V14.00,2013-01-16 07:59:00,
2013-01-16 03:29:00,15.2,11.5,30.15,North,5,0.0,0.0,85,0.00,,---,0.00,VWS V14.00,2013-01-16 08:29:00,
2013-01-16 03:59:00,14.8,11.4,30.13,North,5,0.0,0.0,86,0.00,,---,0.00,VWS V14.00,2013-01-16 08:59:00,
2013-01-16 04:29:00,14.2,11.1,30.12,North,5,0.0,0.0,87,0.00,,---,0.00,VWS V14.00,2013-01-16 09:29:00,
2013-01-16 04:59:00,14.1,10.7,30.10,North,5,0.0,0.0,86,0.00,,---,0.00,VWS V14.00,2013-01-16 09:59:00,
2013-01-16 05:29:00,13.8,10.4,30.09,North,5,0.0,0.0,86,0.00,,---,0.00,VWS V14.00,2013-01-16 10:29:00,
2013-01-16 05:59:00,13.7,10.0,30.08,North,5,0.0,0.0,85,0.00,,---,0.00,VWS V14.00,2013-01-16 10:59:00,
2013-01-16 06:29:00,13.5,10.4,30.08,North,5,0.0,0.0,87,0.00,,---,0.00,VWS V14.00,2013-01-16 11:29:00,
2013-01-16 06:59:00,13.6,10.5,30.08,NNE,24,0.0,0.0,87,0.00,,---,0.00,VWS V14.00,2013-01-16 11:59:00,
2013-01-16 07:29:00,13.4,10.3,30.07,NNE,24,0.0,1.0,87,0.00,,---,0.00,VWS V14.00,2013-01-16 12:29:00,
2013-01-16 07:59:00,14.0,11.1,30.07,NNE,24,0.0,0.0,88,0.00,,---,0.00,VWS V14.00,2013-01-16 12:59:00,
2013-01-16 08:29:00,14.6,11.9,30.05,SE,144,0.0,0.0,89,0.00,,---,0.00,VWS V14.00,2013-01-16 13:29:00,
2013-01-16 08:59:00,17.7,15.0,30.04,ENE,70,0.0,0.0,89,0.00,,---,0.00,VWS V14.00,2013-01-16 13:59:00,
2013-01-16 09:29:00,20.8,17.5,30.02,NE,43,0.0,0.0,87,0.00,,---,0.00,VWS V14.00,2013-01-16 14:29:00,
2013-01-16 09:59:00,23.1,18.7,30.01,NE,43,0.0,0.0,83,0.00,,---,0.00,VWS V14.00,2013-01-16 14:59:00,
2013-01-16 10:29:00,26.2,20.6,30.00,South,190,1.0,3.0,79,0.00,,---,0.00,VWS V14.00,2013-01-16 15:29:00,
2013-01-16 10:59:00,26.9,20.7,29.97,SSE,149,4.0,5.0,77,0.00,,---,0.00,VWS V14.00,2013-01-16 15:59:00,
2013-01-16 11:29:00,27.9,20.4,29.94,South,176,7.0,7.0,73,0.00,,---,0.00,VWS V14.00,2013-01-16 16:29:00,
2013-01-16 11:59:00,28.3,20.4,29.90,South,173,5.0,6.0,72,0.00,,---,0.00,VWS V14.00,2013-01-16 16:59:00,
2013-01-16 12:29:00,30.5,21.2,29.87,SSE,148,0.0,3.0,68,0.00,,---,0.00,VWS V14.00,2013-01-16 17:29:00,
2013-01-16 12:59:00,30.4,19.7,29.85,ENE,69,1.0,10.0,64,0.00,,---,0.00,VWS V14.00,2013-01-16 17:59:00,
2013-01-16 13:29:00,29.9,20.3,29.82,SSE,160,5.0,8.0,67,0.00,,---,0.00,VWS V14.00,2013-01-16 18:29:00,
2013-01-16 13:59:00,29.6,21.4,29.81,ESE,113,0.0,4.0,71,0.00,,---,0.00,VWS V14.00,2013-01-16 18:59:00,
2013-01-16 14:29:00,29.6,21.7,29.79,South,182,2.0,4.0,72,0.00,,---,0.00,VWS V14.00,2013-01-16 19:29:00,
2013-01-16 14:59:00,29.7,21.8,29.77,SW,235,0.0,3.0,72,0.00,,---,0.00,VWS V14.00,2013-01-16 19:59:00,
2013-01-16 15:29:00,29.1,22.2,29.77,South,191,1.0,2.0,75,0.00,,---,0.00,VWS V14.00,2013-01-16 20:29:00,
2013-01-16 15:59:00,29.2,23.2,29.77,SE,142,1.0,5.0,78,0.00,,---,0.00,VWS V14.00,2013-01-16 20:59:00,
2013-01-16 16:29:00,28.9,22.9,29.76,SE,125,0.0,0.0,78,0.00,,---,0.00,VWS V14.00,2013-01-16 21:29:00,
2013-01-16 16:59:00,28.5,23.1,29.75,SSE,152,2.0,5.0,80,0.00,,---,0.00,VWS V14.00,2013-01-16 21:59:00,
2013-01-16 17:29:00,28.3,23.2,29.74,SW,221,0.0,1.0,81,0.00,,---,0.00,VWS V14.00,2013-01-16 22:29:00,
2013-01-16 17:59:00,28.6,24.7,29.72,SSW,205,0.0,7.0,85,0.00,,---,0.00,VWS V14.00,2013-01-16 22:59:00,
2013-01-16 18:29:00,28.8,25.4,29.72,SW,214,3.0,4.0,87,0.00,,---,0.00,VWS V14.00,2013-01-16 23:29:00,
2013-01-16 18:59:00,28.8,25.7,29.71,SSW,209,2.0,2.0,88,0.00,,---,0.00,VWS V14.00,2013-01-16 23:59:00,
2013-01-16 19:29:00,28.9,25.8,29.72,SE,146,1.0,2.0,88,0.00,,---,0.00,VWS V14.00,2013-01-17 00:29:00,
2013-01-16 19:59:00,29.0,25.9,29.71,WSW,240,4.0,10.0,88,0.00,,---,0.00,VWS V14.00,2013-01-17 00:59:00,
2013-01-16 20:29:00,28.9,25.8,29.71,South,169,0.0,7.0,88,0.00,,---,0.00,VWS V14.00,2013-01-17 01:29:00,
2013-01-16 20:59:00,28.9,26.1,29.70,West,262,2.0,7.0,89,0.00,,---,0.00,VWS V14.00,2013-01-17 01:59:00,
2013-01-16 21:29:00,29.2,26.1,29.69,SW,223,0.0,5.0,88,0.00,,---,0.00,VWS V14.00,2013-01-17 02:29:00,
2013-01-16 21:59:00,29.3,26.2,29.67,ENE,74,1.0,6.0,88,0.00,,---,0.00,VWS V14.00,2013-01-17 02:59:00,
2013-01-16 22:29:00,29.4,26.0,29.67,SE,138,4.0,7.0,87,0.00,,---,0.00,VWS V14.00,2013-01-17 03:29:00,
2013-01-16 22:59:00,29.4,26.0,29.67,SW,219,3.0,8.0,87,0.00,,---,0.00,VWS V14.00,2013-01-17 03:59:00,
2013-01-16 23:29:00,29.7,26.0,29.67,East,100,1.0,2.0,86,0.00,,---,0.00,VWS V14.00,2013-01-17 04:29:00,
2013-01-16 23:59:00,29.7,25.8,29.67,SSE,165,3.0,5.0,85,0.00,,---,0.00,VWS V14.00,2013-01-17 04:59:00,